createdAt,value
2019-04-03T00:01:46.581Z,3.80
2019-04-03T00:04:15.421Z,2.60
2019-04-03T00:06:44.639Z,4.00
2019-04-03T00:09:13.317Z,2.83
2019-04-03T00:11:42.195Z,2.67
2019-04-03T00:14:12.867Z,2.87
2019-04-03T00:16:40.622Z,3.07
2019-04-03T00:19:09.546Z,2.92
2019-04-03T00:21:39.103Z,3.10
2019-04-03T00:24:08.026Z,3.33
2019-04-03T00:26:36.782Z,3.30
2019-04-03T00:29:05.616Z,3.87
2019-04-03T00:31:34.458Z,3.90
2019-04-03T00:36:31.161Z,3.67
2019-04-03T00:39:00.002Z,3.90
2019-04-03T00:41:28.867Z,3.67
2019-04-03T00:43:57.698Z,4.20
2019-04-03T00:46:26.555Z,5.67
2019-04-03T00:48:56.189Z,4.07
2019-04-03T00:51:27.181Z,5.17
2019-04-03T00:53:53.055Z,3.93
2019-04-03T00:56:22.633Z,3.40
2019-04-03T00:58:51.472Z,4.43
2019-04-03T01:01:20.320Z,4.03
2019-04-03T01:03:49.194Z,3.83
2019-04-03T01:06:18.037Z,4.57
2019-04-03T01:08:46.900Z,4.07
2019-04-03T01:11:16.481Z,3.70
2019-04-03T01:13:45.316Z,3.90
2019-04-03T01:16:14.156Z,3.40
2019-04-03T01:18:43.016Z,4.40
2019-04-03T01:21:11.923Z,4.33
2019-04-03T01:23:40.679Z,4.53
2019-04-03T01:26:10.253Z,3.93
2019-04-03T01:28:38.473Z,5.10
2019-04-03T01:31:07.216Z,4.05
2019-04-03T01:33:36.053Z,4.23
2019-04-03T01:36:04.931Z,4.10
2019-04-03T01:38:33.766Z,3.80
2019-04-03T01:41:02.678Z,4.78
2019-04-03T01:43:31.442Z,3.87
2019-04-03T01:46:00.307Z,4.07
2019-04-03T01:48:30.034Z,3.90
2019-04-03T01:50:59.548Z,4.47
2019-04-03T01:53:28.449Z,5.73
2019-04-03T01:55:58.029Z,5.87
2019-04-03T01:58:26.863Z,4.30
2019-04-03T02:00:56.453Z,4.30
2019-04-03T02:03:25.310Z,4.40
2019-04-03T02:05:54.142Z,5.47
2019-04-03T02:08:23.732Z,4.97
2019-04-03T02:10:52.566Z,4.17
2019-04-03T02:13:21.985Z,6.40
2019-04-03T02:15:52.225Z,4.77
2019-04-03T02:18:19.080Z,4.63
2019-04-03T02:20:47.917Z,4.60
2019-04-03T02:23:16.740Z,5.57
2019-04-03T02:25:45.713Z,4.90
2019-04-03T02:28:14.408Z,6.87
2019-04-03T02:30:46.033Z,4.57
2019-04-03T02:33:12.093Z,4.80
2019-04-03T02:35:41.052Z,5.20
2019-04-03T02:38:09.789Z,5.00
2019-04-03T02:40:38.608Z,5.27
2019-04-03T02:43:08.176Z,5.10
2019-04-03T02:45:37.205Z,5.32
2019-04-03T02:48:06.527Z,5.20
2019-04-03T02:50:34.722Z,4.73
2019-04-03T02:53:03.577Z,5.30
2019-04-03T02:55:32.396Z,6.47
2019-04-03T02:58:01.241Z,5.57
2019-04-03T03:00:33.029Z,4.67
2019-04-03T03:02:59.657Z,5.47
2019-04-03T03:05:29.181Z,4.30
2019-04-03T03:07:57.508Z,4.30
2019-04-03T03:10:26.186Z,4.60
2019-04-03T03:12:55.343Z,4.50
2019-04-03T03:15:24.617Z,4.10
2019-04-03T03:17:55.104Z,4.60
2019-04-03T03:20:22.274Z,4.93
2019-04-03T03:22:51.650Z,4.93
2019-04-03T03:25:19.925Z,4.00
2019-04-03T03:27:48.760Z,4.03
2019-04-03T03:30:37.253Z,3.90
2019-04-03T03:32:48.426Z,5.17
2019-04-03T03:35:26.020Z,4.60
2019-04-03T03:37:45.609Z,5.97
2019-04-03T03:40:16.523Z,4.10
2019-04-03T03:42:43.290Z,3.77
2019-04-03T03:45:12.162Z,4.77
2019-04-03T03:47:40.972Z,4.93
2019-04-03T03:50:09.844Z,4.50
2019-04-03T03:52:39.150Z,4.43
2019-04-03T03:55:07.510Z,4.70
2019-04-03T03:57:39.489Z,5.40
2019-04-03T04:00:06.080Z,4.80
2019-04-03T04:02:36.763Z,4.70
2019-04-03T04:05:03.745Z,4.63
2019-04-03T04:07:35.910Z,4.97
2019-04-03T04:10:02.409Z,4.60
2019-04-03T04:12:31.274Z,5.50
2019-04-03T04:14:59.832Z,5.13
2019-04-03T04:17:29.127Z,5.97
2019-04-03T04:20:02.620Z,5.43
2019-04-03T04:22:28.095Z,4.57
2019-04-03T04:24:57.153Z,5.33
2019-04-03T04:27:25.482Z,5.47
2019-04-03T04:29:54.441Z,5.80
2019-04-03T04:32:23.310Z,5.43
2019-04-03T04:34:51.988Z,5.63
2019-04-03T04:37:20.840Z,6.20
2019-04-03T04:39:49.667Z,6.67
2019-04-03T04:42:18.504Z,6.53
2019-04-03T04:44:47.347Z,5.90
2019-04-03T04:47:16.934Z,6.10
2019-04-03T04:49:45.763Z,5.85
2019-04-03T04:52:14.722Z,5.47
2019-04-03T04:54:43.438Z,5.73
2019-04-03T04:57:12.273Z,5.67
2019-04-03T04:59:41.269Z,7.60
2019-04-03T05:02:09.944Z,6.50
2019-04-03T05:04:38.796Z,5.60
2019-04-03T05:07:07.661Z,6.73
2019-04-03T05:09:36.624Z,6.28
2019-04-03T05:12:05.373Z,6.23
2019-04-03T05:14:34.390Z,5.80
2019-04-03T05:17:03.721Z,7.13
2019-04-03T05:19:32.543Z,8.40
2019-04-03T05:22:01.388Z,6.90
2019-04-03T05:24:30.232Z,7.70
2019-04-03T05:26:59.075Z,7.07
2019-04-03T05:29:27.915Z,6.50
2019-04-03T05:31:56.749Z,6.47
2019-04-03T05:34:25.743Z,6.80
2019-04-03T05:36:54.418Z,5.97
2019-04-03T05:39:24.151Z,7.30
2019-04-03T05:41:52.474Z,6.50
2019-04-03T05:44:23.188Z,5.13
2019-04-03T05:46:49.780Z,6.70
2019-04-03T05:49:19.337Z,9.37
2019-04-03T05:51:48.168Z,8.23
2019-04-03T05:54:17.007Z,6.53
2019-04-03T05:56:45.844Z,5.83
2019-04-03T05:59:14.767Z,6.47
2019-04-03T06:01:46.579Z,6.73
2019-04-03T06:04:13.079Z,5.43
2019-04-03T06:06:41.916Z,5.90
2019-04-03T06:09:10.750Z,5.80
2019-04-03T06:11:41.157Z,5.43
2019-04-03T06:14:09.159Z,5.50
2019-04-03T06:16:38.013Z,5.33
2019-04-03T06:19:07.434Z,6.00
2019-04-03T06:21:36.312Z,5.47
2019-04-03T06:24:05.152Z,5.73
2019-04-03T06:26:33.983Z,7.50
2019-04-03T06:29:02.960Z,7.80
2019-04-03T06:31:31.659Z,5.27
2019-04-03T06:34:00.499Z,5.83
2019-04-03T06:36:29.331Z,5.23
2019-04-03T06:38:58.160Z,9.57
2019-04-03T06:41:27.729Z,6.87
2019-04-03T06:43:56.550Z,5.37
2019-04-03T06:46:25.398Z,5.13
2019-04-03T06:48:55.652Z,5.23
2019-04-03T06:51:23.063Z,5.00
2019-04-03T06:53:51.903Z,5.33
2019-04-03T06:56:20.782Z,5.40
2019-04-03T06:58:50.355Z,4.67
2019-04-03T07:01:20.207Z,5.33
2019-04-03T07:03:48.767Z,6.30
2019-04-03T07:06:17.593Z,4.50
2019-04-03T07:08:46.420Z,4.63
2019-04-03T07:11:23.423Z,4.33
2019-04-03T07:13:44.089Z,4.30
2019-04-03T07:16:12.912Z,4.47
2019-04-03T07:18:41.743Z,4.70
2019-04-03T07:21:10.996Z,4.60
2019-04-03T07:23:39.843Z,4.20
2019-04-03T07:26:08.689Z,4.30
2019-04-03T07:28:40.860Z,4.13
2019-04-03T07:31:06.351Z,4.40
2019-04-03T07:33:35.179Z,4.20
2019-04-03T07:36:04.010Z,5.40
2019-04-03T07:38:32.842Z,3.67
2019-04-03T07:41:02.407Z,6.17
2019-04-03T07:43:31.365Z,3.90
2019-04-03T07:46:01.703Z,5.87
2019-04-03T07:48:29.631Z,6.85
2019-04-03T07:50:59.209Z,7.13
2019-04-03T07:53:28.030Z,6.85
2019-04-03T07:55:57.623Z,5.50
2019-04-03T07:58:26.553Z,6.23
2019-04-03T08:00:55.495Z,5.37
2019-04-03T08:03:24.377Z,5.40
2019-04-03T08:05:55.800Z,7.00
2019-04-03T08:08:21.795Z,6.40
2019-04-03T08:10:50.645Z,7.73
2019-04-03T08:13:19.521Z,6.53
2019-04-03T08:15:48.341Z,6.90
2019-04-03T08:18:20.659Z,7.37
2019-04-03T08:20:46.733Z,6.53
2019-04-03T08:23:15.575Z,7.53
2019-04-03T08:25:47.122Z,8.38
2019-04-03T08:28:13.247Z,8.63
2019-04-03T08:30:42.063Z,7.20
2019-04-03T08:33:17.038Z,8.37
2019-04-03T08:35:39.721Z,6.50
2019-04-03T08:38:08.556Z,6.80
2019-04-03T08:40:37.983Z,6.23
2019-04-03T08:43:06.230Z,7.20
2019-04-03T08:45:37.592Z,6.97
2019-04-03T08:48:06.220Z,7.13
2019-04-03T08:50:33.533Z,7.72
2019-04-03T08:53:03.103Z,7.93
2019-04-03T08:55:31.946Z,6.07
2019-04-03T08:58:01.076Z,7.93
2019-04-03T09:00:31.582Z,5.30
2019-04-03T09:02:58.448Z,5.87
2019-04-03T09:05:27.311Z,6.60
2019-04-03T09:07:56.921Z,5.80
2019-04-03T09:10:25.685Z,7.45
2019-04-03T09:12:54.544Z,7.80
2019-04-03T09:15:23.373Z,3.83
2019-04-03T09:17:52.210Z,2.93
2019-04-03T09:20:21.101Z,2.40
2019-04-03T09:22:52.803Z,2.10
2019-04-03T09:25:18.769Z,1.60
2019-04-03T09:27:47.750Z,1.70
2019-04-03T09:30:16.714Z,1.70
2019-04-03T09:32:45.496Z,1.53
2019-04-03T09:35:14.082Z,1.20
2019-04-03T09:37:45.290Z,1.20
2019-04-03T09:40:11.769Z,1.40
2019-04-03T09:42:40.544Z,1.50
2019-04-03T09:45:09.402Z,1.57
2019-04-03T09:47:38.208Z,1.40
2019-04-03T09:50:07.783Z,1.50
2019-04-03T09:52:41.500Z,1.10
2019-04-03T09:55:06.282Z,1.10
2019-04-03T09:57:35.004Z,1.30
2019-04-03T10:00:05.251Z,2.30
2019-04-03T10:02:34.255Z,1.42
2019-04-03T10:05:03.122Z,1.30
2019-04-03T10:07:33.626Z,1.20
2019-04-03T10:10:00.570Z,1.90
2019-04-03T10:12:31.780Z,1.73
2019-04-03T10:14:59.247Z,2.07
2019-04-03T10:17:27.043Z,1.20
2019-04-03T10:19:55.877Z,2.20
2019-04-03T10:22:25.043Z,1.30
2019-04-03T10:24:53.557Z,1.13
2019-04-03T10:27:22.393Z,1.30
2019-04-03T10:29:51.886Z,1.50
2019-04-03T10:32:21.404Z,1.83
2019-04-03T10:34:50.237Z,1.30
2019-04-03T10:37:19.095Z,1.30
2019-04-03T10:39:51.759Z,1.30
2019-04-03T10:42:17.491Z,1.45
2019-04-03T10:44:47.141Z,1.93
2019-04-03T10:47:16.055Z,1.20
2019-04-03T10:49:44.963Z,3.80
2019-04-03T10:52:14.354Z,1.10
2019-04-03T10:54:43.164Z,1.07
2019-04-03T10:57:11.992Z,2.03
2019-04-03T10:59:40.833Z,0.90
2019-04-03T11:02:09.649Z,1.57
2019-04-03T11:04:38.568Z,2.00
2019-04-03T11:07:07.329Z,1.20
2019-04-03T11:09:36.922Z,1.63
2019-04-03T11:12:09.454Z,1.30
2019-04-03T11:14:38.493Z,1.25
2019-04-03T11:17:04.194Z,1.23
2019-04-03T11:19:33.275Z,1.53
2019-04-03T11:22:01.871Z,1.50
2019-04-03T11:24:30.705Z,1.93
2019-04-03T11:27:00.312Z,1.70
2019-04-03T11:29:29.850Z,1.33
2019-04-03T11:31:58.734Z,1.53
2019-04-03T11:34:28.279Z,1.10
2019-04-03T11:36:59.666Z,1.20
2019-04-03T11:39:25.947Z,1.70
2019-04-03T11:41:56.155Z,1.40
2019-04-03T11:44:23.632Z,1.30
2019-04-03T11:46:53.552Z,2.30
2019-04-03T11:49:22.205Z,1.03
2019-04-03T11:51:50.921Z,1.20
2019-04-03T11:54:19.777Z,1.17
2019-04-03T11:56:49.000Z,1.40
2019-04-03T11:59:17.510Z,2.03
2019-04-03T12:01:46.370Z,1.77
2019-04-03T12:04:15.174Z,2.20
2019-04-03T12:06:44.317Z,1.70
2019-04-03T12:09:12.863Z,1.60
2019-04-03T12:11:41.696Z,1.70
2019-04-03T12:14:10.626Z,1.00
2019-04-03T12:16:39.361Z,1.73
2019-04-03T12:19:08.203Z,1.10
2019-04-03T12:21:37.040Z,0.80
2019-04-03T12:24:05.998Z,0.80
2019-04-03T12:26:35.487Z,0.90
2019-04-03T12:29:06.892Z,0.90
2019-04-03T12:31:33.854Z,1.00
2019-04-03T12:34:05.248Z,1.10
2019-04-03T12:36:31.527Z,1.30
2019-04-03T12:39:00.395Z,3.07
2019-04-03T12:41:29.204Z,0.90
2019-04-03T12:43:58.056Z,1.30
2019-04-03T12:46:33.337Z,1.47
2019-04-03T12:49:01.847Z,1.93
2019-04-03T12:51:31.568Z,1.30
2019-04-03T12:53:59.959Z,1.10
2019-04-03T12:56:30.037Z,1.20
2019-04-03T12:58:57.656Z,1.40
2019-04-03T13:01:26.713Z,1.40
2019-04-03T13:03:56.390Z,1.30
2019-04-03T13:06:24.535Z,1.13
2019-04-03T13:08:53.023Z,1.43
2019-04-03T13:11:22.294Z,1.48
2019-04-03T13:13:51.459Z,1.40
2019-04-03T13:16:21.937Z,1.77
2019-04-03T13:18:49.444Z,1.30
2019-04-03T13:21:17.929Z,1.40
2019-04-03T13:23:47.755Z,1.80
2019-04-03T13:26:16.484Z,1.60
2019-04-03T13:28:45.180Z,1.20
2019-04-03T13:31:14.947Z,1.20
2019-04-03T13:33:43.578Z,1.97
2019-04-03T13:36:12.734Z,1.15
2019-04-03T13:38:41.408Z,1.77
2019-04-03T13:41:11.087Z,1.20
2019-04-03T13:43:39.511Z,1.40
2019-04-03T13:46:08.338Z,1.65
2019-04-03T13:48:37.705Z,1.20
2019-04-03T13:51:06.279Z,1.50
2019-04-03T13:53:34.881Z,1.03
2019-04-03T13:56:06.035Z,1.20
2019-04-03T13:58:32.850Z,1.10
2019-04-03T14:01:02.980Z,1.20
2019-04-03T14:03:30.212Z,1.67
2019-04-03T14:05:59.048Z,1.30
2019-04-03T14:08:27.873Z,1.20
2019-04-03T14:10:58.260Z,1.30
2019-04-03T14:13:25.560Z,1.40
2019-04-03T14:15:55.748Z,1.20
2019-04-03T14:18:23.250Z,1.30
2019-04-03T14:20:55.319Z,2.40
2019-04-03T14:23:21.664Z,1.60
2019-04-03T14:26:03.102Z,1.67
2019-04-03T14:28:20.045Z,1.60
2019-04-03T14:30:48.900Z,1.50
2019-04-03T14:33:19.689Z,1.93
2019-04-03T14:35:53.088Z,1.30
2019-04-03T14:38:16.157Z,3.37
2019-04-03T14:40:45.072Z,1.60
2019-04-03T14:43:14.592Z,1.77
2019-04-03T14:45:45.135Z,2.50
2019-04-03T14:48:12.272Z,1.20
2019-04-03T14:50:41.856Z,1.97
2019-04-03T14:53:10.740Z,2.57
2019-04-03T14:55:47.680Z,0.80
2019-04-03T14:58:09.129Z,1.10
2019-04-03T15:00:37.971Z,2.60
2019-04-03T15:03:06.949Z,1.10
2019-04-03T15:05:38.893Z,1.03
2019-04-03T15:08:05.540Z,0.80
2019-04-03T15:10:34.130Z,1.07
2019-04-03T15:13:03.857Z,0.98
2019-04-03T15:15:33.363Z,1.27
2019-04-03T15:18:02.180Z,1.53
2019-04-03T15:20:32.922Z,1.87
2019-04-03T15:22:59.842Z,5.90
2019-04-03T15:25:29.525Z,4.20
2019-04-03T15:27:59.297Z,5.70
2019-04-03T15:30:27.188Z,2.00
2019-04-03T15:32:56.776Z,1.80
2019-04-03T15:35:25.628Z,5.32
2019-04-03T15:37:54.727Z,2.80
2019-04-03T15:40:25.750Z,1.37
2019-04-03T15:42:53.983Z,2.70
2019-04-03T15:45:22.430Z,2.07
2019-04-03T15:47:55.024Z,1.90
2019-04-03T15:50:19.950Z,1.43
2019-04-03T15:52:50.648Z,3.03
2019-04-03T15:55:18.669Z,2.55
2019-04-03T15:57:47.217Z,3.87
2019-04-03T16:00:16.096Z,2.43
2019-04-03T16:02:46.275Z,3.10
2019-04-03T16:05:13.747Z,2.13
2019-04-03T16:07:42.801Z,2.40
2019-04-03T16:10:11.742Z,1.83
2019-04-03T16:12:42.972Z,1.73
2019-04-03T16:15:09.913Z,1.90
2019-04-03T16:17:39.714Z,2.70
2019-04-03T16:20:07.639Z,1.73
2019-04-03T16:22:36.864Z,2.27
2019-04-03T16:25:05.766Z,2.23
2019-04-03T16:27:34.073Z,2.40
2019-04-03T16:30:02.902Z,1.40
2019-04-03T16:32:32.781Z,3.30
2019-04-03T16:35:01.346Z,3.13
2019-04-03T16:37:30.164Z,2.70
2019-04-03T16:39:59.364Z,2.92
2019-04-03T16:42:28.569Z,2.17
2019-04-03T16:44:58.348Z,1.70
2019-04-03T16:47:27.595Z,4.23
2019-04-03T16:49:55.904Z,2.00
2019-04-03T16:52:24.429Z,3.00
2019-04-03T16:54:53.507Z,2.80
2019-04-03T16:57:22.993Z,2.30
2019-04-03T16:59:51.187Z,2.67
2019-04-03T17:02:23.407Z,2.90
2019-04-03T17:04:49.100Z,1.90
2019-04-03T17:07:17.972Z,3.13
2019-04-03T17:09:46.602Z,2.27
2019-04-03T17:12:17.051Z,2.70
2019-04-03T17:14:44.234Z,2.90
2019-04-03T17:17:14.359Z,2.93
2019-04-03T17:19:42.345Z,3.43
2019-04-03T17:22:10.764Z,2.17
2019-04-03T17:24:44.229Z,2.83
2019-04-03T17:27:09.301Z,2.90
2019-04-03T17:29:38.614Z,2.45
2019-04-03T17:32:08.179Z,2.30
2019-04-03T17:34:37.873Z,2.13
2019-04-03T17:37:06.362Z,2.00
2019-04-03T17:39:35.770Z,2.40
2019-04-03T17:42:03.775Z,1.80
2019-04-03T17:44:32.619Z,1.93
2019-04-03T17:47:01.468Z,2.57
2019-04-03T17:49:30.320Z,1.97
2019-04-03T17:51:59.163Z,2.60
2019-04-03T17:54:28.002Z,2.80
2019-04-03T17:56:56.889Z,3.07
2019-04-03T17:59:25.732Z,2.47
2019-04-03T18:01:54.578Z,2.27
2019-04-03T18:04:23.417Z,2.70
2019-04-03T18:06:52.257Z,2.37
2019-04-03T18:09:21.103Z,2.90
2019-04-03T18:11:49.948Z,3.33
2019-04-03T18:14:19.525Z,1.60
2019-04-03T18:16:48.355Z,2.03
2019-04-03T18:19:17.946Z,2.08
2019-04-03T18:21:46.869Z,1.70
2019-04-03T18:24:15.629Z,2.00
2019-04-03T18:26:45.048Z,2.67
2019-04-03T18:29:13.326Z,2.70
2019-04-03T18:31:42.772Z,1.70
2019-04-03T18:34:10.973Z,2.37
2019-04-03T18:36:39.821Z,2.80
2019-04-03T18:39:09.735Z,2.30
2019-04-03T18:41:37.529Z,2.97
2019-04-03T18:44:06.382Z,2.27
2019-04-03T18:46:36.841Z,2.07
2019-04-03T18:49:05.244Z,1.40
2019-04-03T18:51:36.573Z,1.30
2019-04-03T18:54:02.927Z,1.50
2019-04-03T18:56:32.376Z,1.30
2019-04-03T18:59:01.238Z,1.87
2019-04-03T19:01:32.290Z,1.73
2019-04-03T19:03:58.912Z,1.30
2019-04-03T19:06:27.736Z,2.33
2019-04-03T19:09:08.941Z,1.90
2019-04-03T19:11:26.192Z,2.27
2019-04-03T19:13:55.784Z,1.92
2019-04-03T19:16:29.728Z,1.80
2019-04-03T19:18:53.469Z,3.00
2019-04-03T19:21:28.275Z,1.80
2019-04-03T19:23:53.667Z,2.20
2019-04-03T19:26:20.796Z,1.60
2019-04-03T19:28:50.348Z,1.70
2019-04-03T19:31:20.052Z,2.87
2019-04-03T19:33:48.042Z,1.73
2019-04-03T19:36:16.906Z,2.93
2019-04-03T19:38:45.752Z,2.00
2019-04-03T19:41:14.592Z,4.50
2019-04-03T19:43:44.039Z,2.50
2019-04-03T19:46:12.329Z,2.70
2019-04-03T19:48:41.178Z,2.03
2019-04-03T19:51:10.033Z,2.27
2019-04-03T19:53:38.881Z,1.90
2019-04-03T19:56:07.738Z,2.20
2019-04-03T19:58:36.628Z,2.20
2019-04-03T20:01:07.475Z,3.73
2019-04-03T20:03:34.374Z,1.97
2019-04-03T20:06:03.170Z,2.20
2019-04-03T20:08:32.014Z,2.67
2019-04-03T20:11:00.862Z,3.00
2019-04-03T20:13:29.728Z,3.27
2019-04-03T20:15:58.570Z,2.30
2019-04-03T20:18:28.132Z,2.97
2019-04-03T20:20:56.982Z,3.07
2019-04-03T20:23:26.601Z,4.40
2019-04-03T20:25:55.448Z,4.80
2019-04-03T20:28:24.464Z,4.60
2019-04-03T20:30:53.168Z,4.60
2019-04-03T20:33:22.018Z,4.75
2019-04-03T20:35:50.846Z,4.57
2019-04-03T20:38:19.689Z,5.57
2019-04-03T20:40:48.509Z,4.53
2019-04-03T20:43:17.343Z,4.47
2019-04-03T20:45:49.357Z,3.97
2019-04-03T20:48:15.032Z,4.00
2019-04-03T20:50:43.873Z,3.90
2019-04-03T20:53:12.734Z,4.22
2019-04-03T20:55:55.985Z,4.70
2019-04-03T20:58:23.433Z,5.47
2019-04-03T21:01:05.687Z,5.63
2019-04-03T21:03:21.167Z,6.50
2019-04-03T21:05:50.045Z,7.03
2019-04-03T21:08:18.971Z,5.47
2019-04-03T21:10:47.786Z,6.03
2019-04-03T21:13:16.642Z,6.47
2019-04-03T21:15:46.048Z,6.70
2019-04-03T21:18:14.375Z,6.20
2019-04-03T21:20:43.213Z,6.07
2019-04-03T21:23:12.047Z,5.20
2019-04-03T21:25:41.629Z,4.50
2019-04-03T21:28:10.972Z,4.37
2019-04-03T21:30:39.322Z,4.23
2019-04-03T21:33:08.167Z,4.17
2019-04-03T21:35:37.028Z,3.90
2019-04-03T21:38:05.878Z,4.70
2019-04-03T21:40:34.736Z,4.40
2019-04-03T21:43:03.575Z,4.83
2019-04-03T21:45:32.396Z,4.37
2019-04-03T21:48:01.227Z,4.47
2019-04-03T21:50:30.135Z,4.37
2019-04-03T21:52:58.949Z,4.87
2019-04-03T21:55:30.711Z,5.23
2019-04-03T21:57:57.381Z,5.20
2019-04-03T22:03:11.848Z,6.00
2019-04-03T22:05:40.682Z,5.90
2019-04-03T22:08:09.523Z,5.70
2019-04-03T22:10:38.345Z,6.40
2019-04-03T22:13:08.297Z,6.50
2019-04-03T22:15:36.926Z,6.70
2019-04-03T22:18:05.692Z,7.00
2019-04-03T22:20:35.293Z,7.47
2019-04-03T22:23:05.475Z,7.30
2019-04-03T22:25:33.795Z,7.72
2019-04-03T22:28:02.579Z,7.87
2019-04-03T22:30:32.146Z,7.73
2019-04-03T22:33:00.986Z,7.43
2019-04-03T22:35:30.185Z,8.70
2019-04-03T22:37:58.663Z,7.70
2019-04-03T22:40:27.517Z,8.17
2019-04-03T22:42:56.411Z,8.40
2019-04-03T22:45:25.288Z,9.80
2019-04-03T22:47:54.304Z,9.33
2019-04-03T22:50:23.696Z,9.37
2019-04-03T22:52:52.545Z,9.77
2019-04-03T22:55:21.391Z,10.55
2019-04-03T22:57:51.156Z,8.80
2019-04-03T23:00:19.795Z,11.07
2019-04-03T23:02:49.379Z,11.07
2019-04-03T23:05:18.322Z,10.10
2019-04-03T23:07:47.067Z,11.53
2019-04-03T23:10:16.768Z,11.25
2019-04-03T23:12:45.625Z,11.40
2019-04-03T23:15:14.508Z,11.07
2019-04-03T23:17:44.840Z,10.70
2019-04-03T23:20:12.219Z,10.37
2019-04-03T23:22:41.086Z,9.80
2019-04-03T23:25:09.878Z,10.73
2019-04-03T23:27:38.824Z,10.10
2019-04-03T23:30:09.917Z,9.50
2019-04-03T23:32:36.452Z,9.37
2019-04-03T23:35:05.295Z,10.03
2019-04-03T23:37:34.156Z,9.80
2019-04-03T23:40:02.981Z,10.53
2019-04-03T23:42:31.835Z,9.53
2019-04-03T23:45:01.431Z,9.97
2019-04-03T23:47:30.281Z,10.35
2019-04-03T23:49:59.111Z,11.07
2019-04-03T23:52:28.044Z,10.47
2019-04-03T23:54:56.781Z,9.93
2019-04-03T23:57:25.629Z,10.80
2019-04-03T23:59:54.489Z,11.93
